Ararat, Australia
Current Conditions -  °F | °C
As of 8:00 AM on Saturday 01 Nov 2014 (Local Time) from YMAV Reporting Station
Overcast Overcast  
Wind Chill: 55°   Ceiling: 1600
Heat Index: 55°   Visibility: 6mi
Dew Point: 52°   Wind: 22mph
Humidity: 88%   Direction: 270°W
Pressure: 29.59"   Gusts: 36mph
Location:  37.28°S, 142.93°E
Report Text: YMAV 312100Z AUTO 27019G31KT 9999 // BKN016 OVC024 OVC039 13/11 Q1002
Loading
Personal Weather Stations






























Interactive Weather Map
Tropical Storm Tracking
New forecast layout! Learn more

10-Day Weather Forecast

Advertisements
Track Severe Weather on mobile